sensor_id;sensor_type;location;lat;lon;timestamp;P1;durP1;ratioP1;P2;durP2;ratioP2
64099;SDS011;50385;61.766;38.054;2022-08-19T00:01:42;10.13;;;4.88;;
64099;SDS011;50385;61.766;38.054;2022-08-19T00:04:11;17.45;;;6.00;;
64099;SDS011;50385;61.766;38.054;2022-08-19T00:06:39;8.75;;;6.10;;
64099;SDS011;50385;61.766;38.054;2022-08-19T00:09:08;9.95;;;5.53;;
64099;SDS011;50385;61.766;38.054;2022-08-19T00:11:37;9.60;;;4.47;;
64099;SDS011;50385;61.766;38.054;2022-08-19T00:14:05;7.88;;;5.15;;
64099;SDS011;50385;61.766;38.054;2022-08-19T00:16:33;10.82;;;4.65;;
64099;SDS011;50385;61.766;38.054;2022-08-19T00:19:00;12.30;;;5.10;;
64099;SDS011;50385;61.766;38.054;2022-08-19T00:21:27;10.10;;;4.38;;
64099;SDS011;50385;61.766;38.054;2022-08-19T00:23:55;10.32;;;4.60;;
64099;SDS011;50385;61.766;38.054;2022-08-19T00:26:26;8.60;;;4.68;;
64099;SDS011;50385;61.766;38.054;2022-08-19T00:28:53;7.32;;;4.40;;
64099;SDS011;50385;61.766;38.054;2022-08-19T00:31:21;5.15;;;4.28;;
64099;SDS011;50385;61.766;38.054;2022-08-19T00:33:48;8.45;;;5.00;;
64099;SDS011;50385;61.766;38.054;2022-08-19T00:36:17;9.65;;;4.50;;
64099;SDS011;50385;61.766;38.054;2022-08-19T00:38:44;6.68;;;4.72;;
64099;SDS011;50385;61.766;38.054;2022-08-19T00:41:13;6.18;;;4.78;;
64099;SDS011;50385;61.766;38.054;2022-08-19T00:46:47;6.60;;;4.88;;
64099;SDS011;50385;61.766;38.054;2022-08-19T00:49:16;15.07;;;5.13;;
64099;SDS011;50385;61.766;38.054;2022-08-19T00:51:48;10.20;;;4.45;;
64099;SDS011;50385;61.766;38.054;2022-08-19T00:56:48;9.02;;;5.57;;
64099;SDS011;50385;61.766;38.054;2022-08-19T00:59:17;7.85;;;4.40;;
64099;SDS011;50385;61.766;38.054;2022-08-19T01:01:44;8.27;;;4.30;;
64099;SDS011;50385;61.766;38.054;2022-08-19T01:04:12;5.45;;;3.97;;
64099;SDS011;50385;61.766;38.054;2022-08-19T01:06:39;10.43;;;4.53;;
64099;SDS011;50385;61.766;38.054;2022-08-19T01:09:07;9.82;;;3.65;;
64099;SDS011;50385;61.766;38.054;2022-08-19T01:11:35;7.35;;;4.47;;
64099;SDS011;50385;61.766;38.054;2022-08-19T01:14:05;7.03;;;4.43;;
64099;SDS011;50385;61.766;38.054;2022-08-19T01:16:32;6.00;;;4.50;;
64099;SDS011;50385;61.766;38.054;2022-08-19T01:19:00;9.30;;;4.40;;
64099;SDS011;50385;61.766;38.054;2022-08-19T01:21:38;12.07;;;4.97;;
64099;SDS011;50385;61.766;38.054;2022-08-19T01:24:11;9.87;;;4.80;;
64099;SDS011;50385;61.766;38.054;2022-08-19T01:26:42;8.27;;;5.05;;
64099;SDS011;50385;61.766;38.054;2022-08-19T01:29:10;8.10;;;4.18;;
64099;SDS011;50385;61.766;38.054;2022-08-19T01:31:37;8.23;;;4.95;;
64099;SDS011;50385;61.766;38.054;2022-08-19T01:34:06;7.13;;;4.78;;
64099;SDS011;50385;61.766;38.054;2022-08-19T01:36:41;8.73;;;4.43;;
64099;SDS011;50385;61.766;38.054;2022-08-19T01:39:15;8.27;;;4.57;;
64099;SDS011;50385;61.766;38.054;2022-08-19T01:41:44;10.63;;;4.10;;
64099;SDS011;50385;61.766;38.054;2022-08-19T01:44:11;11.82;;;5.03;;
64099;SDS011;50385;61.766;38.054;2022-08-19T01:46:38;6.97;;;3.78;;
64099;SDS011;50385;61.766;38.054;2022-08-19T01:49:06;6.88;;;3.97;;
64099;SDS011;50385;61.766;38.054;2022-08-19T01:51:34;6.53;;;3.95;;
64099;SDS011;50385;61.766;38.054;2022-08-19T01:54:02;11.82;;;5.20;;
64099;SDS011;50385;61.766;38.054;2022-08-19T01:56:29;15.57;;;6.35;;
64099;SDS011;50385;61.766;38.054;2022-08-19T01:58:58;8.32;;;5.47;;
64099;SDS011;50385;61.766;38.054;2022-08-19T02:01:27;8.13;;;5.45;;
64099;SDS011;50385;61.766;38.054;2022-08-19T02:03:58;9.18;;;5.38;;
64099;SDS011;50385;61.766;38.054;2022-08-19T02:06:26;7.97;;;4.53;;
64099;SDS011;50385;61.766;38.054;2022-08-19T02:08:54;6.40;;;4.05;;
64099;SDS011;50385;61.766;38.054;2022-08-19T02:11:24;8.32;;;4.50;;
64099;SDS011;50385;61.766;38.054;2022-08-19T02:14:01;5.60;;;3.90;;
64099;SDS011;50385;61.766;38.054;2022-08-19T02:16:29;14.27;;;4.38;;
64099;SDS011;50385;61.766;38.054;2022-08-19T02:18:56;8.95;;;3.83;;
64099;SDS011;50385;61.766;38.054;2022-08-19T02:21:27;6.95;;;3.70;;
64099;SDS011;50385;61.766;38.054;2022-08-19T02:23:54;7.85;;;3.95;;
64099;SDS011;50385;61.766;38.054;2022-08-19T02:26:21;5.88;;;4.10;;
64099;SDS011;50385;61.766;38.054;2022-08-19T02:28:48;5.47;;;3.90;;
64099;SDS011;50385;61.766;38.054;2022-08-19T02:31:17;13.30;;;4.47;;
64099;SDS011;50385;61.766;38.054;2022-08-19T02:33:45;7.43;;;3.65;;
64099;SDS011;50385;61.766;38.054;2022-08-19T02:36:13;4.75;;;3.78;;
64099;SDS011;50385;61.766;38.054;2022-08-19T02:38:42;10.68;;;4.97;;
64099;SDS011;50385;61.766;38.054;2022-08-19T02:41:20;6.97;;;4.00;;
64099;SDS011;50385;61.766;38.054;2022-08-19T02:43:49;6.45;;;3.92;;
64099;SDS011;50385;61.766;38.054;2022-08-19T02:46:17;9.00;;;3.78;;
64099;SDS011;50385;61.766;38.054;2022-08-19T02:49:00;6.68;;;3.60;;
64099;SDS011;50385;61.766;38.054;2022-08-19T02:51:59;5.68;;;3.60;;
64099;SDS011;50385;61.766;38.054;2022-08-19T02:54:26;7.85;;;4.25;;
64099;SDS011;50385;61.766;38.054;2022-08-19T02:56:54;5.68;;;4.07;;
64099;SDS011;50385;61.766;38.054;2022-08-19T03:02:13;12.98;;;5.32;;
64099;SDS011;50385;61.766;38.054;2022-08-19T03:04:41;10.23;;;4.78;;
64099;SDS011;50385;61.766;38.054;2022-08-19T03:07:09;7.90;;;4.50;;
64099;SDS011;50385;61.766;38.054;2022-08-19T03:09:36;7.30;;;4.72;;
64099;SDS011;50385;61.766;38.054;2022-08-19T03:12:04;9.07;;;4.32;;
64099;SDS011;50385;61.766;38.054;2022-08-19T03:14:31;9.07;;;5.07;;
64099;SDS011;50385;61.766;38.054;2022-08-19T03:16:59;7.35;;;5.07;;
64099;SDS011;50385;61.766;38.054;2022-08-19T03:19:28;9.65;;;4.43;;
64099;SDS011;50385;61.766;38.054;2022-08-19T03:21:58;10.77;;;4.63;;
64099;SDS011;50385;61.766;38.054;2022-08-19T03:24:27;6.05;;;4.53;;
64099;SDS011;50385;61.766;38.054;2022-08-19T03:26:55;6.22;;;4.70;;
64099;SDS011;50385;61.766;38.054;2022-08-19T03:29:26;6.57;;;4.95;;
64099;SDS011;50385;61.766;38.054;2022-08-19T03:31:54;11.25;;;4.20;;
64099;SDS011;50385;61.766;38.054;2022-08-19T03:34:23;6.53;;;4.30;;
64099;SDS011;50385;61.766;38.054;2022-08-19T03:36:53;8.80;;;4.57;;
64099;SDS011;50385;61.766;38.054;2022-08-19T03:39:21;10.63;;;4.57;;
64099;SDS011;50385;61.766;38.054;2022-08-19T03:41:50;9.75;;;4.68;;
64099;SDS011;50385;61.766;38.054;2022-08-19T03:44:20;7.70;;;4.38;;
64099;SDS011;50385;61.766;38.054;2022-08-19T03:46:52;9.25;;;4.07;;
64099;SDS011;50385;61.766;38.054;2022-08-19T03:49:22;7.27;;;4.50;;
64099;SDS011;50385;61.766;38.054;2022-08-19T03:51:52;9.13;;;4.35;;
64099;SDS011;50385;61.766;38.054;2022-08-19T03:54:21;11.60;;;4.50;;
64099;SDS011;50385;61.766;38.054;2022-08-19T03:56:52;4.55;;;4.15;;
64099;SDS011;50385;61.766;38.054;2022-08-19T03:59:22;6.05;;;3.92;;
64099;SDS011;50385;61.766;38.054;2022-08-19T04:01:54;6.43;;;4.15;;
64099;SDS011;50385;61.766;38.054;2022-08-19T04:04:22;4.53;;;3.78;;
64099;SDS011;50385;61.766;38.054;2022-08-19T04:06:50;6.22;;;3.78;;
64099;SDS011;50385;61.766;38.054;2022-08-19T04:09:18;12.35;;;4.10;;
64099;SDS011;50385;61.766;38.054;2022-08-19T04:11:48;10.85;;;3.42;;
64099;SDS011;50385;61.766;38.054;2022-08-19T04:14:21;9.15;;;3.75;;
64099;SDS011;50385;61.766;38.054;2022-08-19T04:16:51;5.22;;;3.17;;
64099;SDS011;50385;61.766;38.054;2022-08-19T04:19:18;7.80;;;3.50;;
64099;SDS011;50385;61.766;38.054;2022-08-19T04:21:47;6.00;;;3.72;;
64099;SDS011;50385;61.766;38.054;2022-08-19T04:24:16;6.70;;;3.92;;
64099;SDS011;50385;61.766;38.054;2022-08-19T04:26:43;7.20;;;3.80;;
64099;SDS011;50385;61.766;38.054;2022-08-19T04:29:15;5.93;;;3.78;;
64099;SDS011;50385;61.766;38.054;2022-08-19T04:31:48;4.85;;;3.53;;
64099;SDS011;50385;61.766;38.054;2022-08-19T04:34:17;11.85;;;4.10;;
64099;SDS011;50385;61.766;38.054;2022-08-19T04:36:48;5.80;;;3.63;;
64099;SDS011;50385;61.766;38.054;2022-08-19T04:39:18;8.70;;;3.55;;
64099;SDS011;50385;61.766;38.054;2022-08-19T04:41:47;7.13;;;3.45;;
64099;SDS011;50385;61.766;38.054;2022-08-19T04:44:35;4.60;;;3.42;;
64099;SDS011;50385;61.766;38.054;2022-08-19T04:47:03;5.00;;;3.95;;
64099;SDS011;50385;61.766;38.054;2022-08-19T04:49:33;6.50;;;3.80;;
64099;SDS011;50385;61.766;38.054;2022-08-19T04:52:00;9.88;;;3.75;;
64099;SDS011;50385;61.766;38.054;2022-08-19T04:54:27;4.38;;;3.80;;
64099;SDS011;50385;61.766;38.054;2022-08-19T04:56:54;7.85;;;3.95;;
64099;SDS011;50385;61.766;38.054;2022-08-19T04:59:21;9.15;;;3.80;;
64099;SDS011;50385;61.766;38.054;2022-08-19T05:01:48;9.10;;;3.78;;
64099;SDS011;50385;61.766;38.054;2022-08-19T05:04:18;7.97;;;3.67;;
64099;SDS011;50385;61.766;38.054;2022-08-19T05:06:47;4.55;;;3.47;;
64099;SDS011;50385;61.766;38.054;2022-08-19T05:09:14;15.25;;;3.83;;
64099;SDS011;50385;61.766;38.054;2022-08-19T05:11:42;8.13;;;3.75;;
64099;SDS011;50385;61.766;38.054;2022-08-19T05:14:11;4.57;;;3.40;;
64099;SDS011;50385;61.766;38.054;2022-08-19T05:16:39;7.97;;;3.67;;
64099;SDS011;50385;61.766;38.054;2022-08-19T05:19:07;4.82;;;3.67;;
64099;SDS011;50385;61.766;38.054;2022-08-19T05:21:53;9.75;;;3.67;;
64099;SDS011;50385;61.766;38.054;2022-08-19T05:24:39;5.80;;;3.60;;
64099;SDS011;50385;61.766;38.054;2022-08-19T05:27:06;4.20;;;3.47;;
64099;SDS011;50385;61.766;38.054;2022-08-19T05:29:36;6.57;;;3.53;;
64099;SDS011;50385;61.766;38.054;2022-08-19T05:32:09;5.85;;;3.35;;
64099;SDS011;50385;61.766;38.054;2022-08-19T05:34:36;5.95;;;3.45;;
64099;SDS011;50385;61.766;38.054;2022-08-19T05:37:05;7.28;;;3.30;;
64099;SDS011;50385;61.766;38.054;2022-08-19T05:39:35;5.75;;;3.67;;
64099;SDS011;50385;61.766;38.054;2022-08-19T05:42:05;9.60;;;3.65;;
64099;SDS011;50385;61.766;38.054;2022-08-19T05:44:35;7.68;;;3.67;;
64099;SDS011;50385;61.766;38.054;2022-08-19T05:47:06;6.35;;;3.20;;
64099;SDS011;50385;61.766;38.054;2022-08-19T05:49:35;7.72;;;3.78;;
64099;SDS011;50385;61.766;38.054;2022-08-19T05:52:03;7.60;;;3.80;;
64099;SDS011;50385;61.766;38.054;2022-08-19T05:54:34;9.55;;;3.92;;
64099;SDS011;50385;61.766;38.054;2022-08-19T05:57:02;5.45;;;3.13;;
64099;SDS011;50385;61.766;38.054;2022-08-19T05:59:29;7.20;;;3.80;;
64099;SDS011;50385;61.766;38.054;2022-08-19T06:02:00;7.18;;;3.70;;
64099;SDS011;50385;61.766;38.054;2022-08-19T06:04:37;7.35;;;3.70;;
64099;SDS011;50385;61.766;38.054;2022-08-19T06:07:05;14.68;;;3.53;;
64099;SDS011;50385;61.766;38.054;2022-08-19T06:09:34;9.80;;;3.38;;
64099;SDS011;50385;61.766;38.054;2022-08-19T06:12:01;9.32;;;3.40;;
64099;SDS011;50385;61.766;38.054;2022-08-19T06:14:31;5.32;;;3.80;;
64099;SDS011;50385;61.766;38.054;2022-08-19T06:17:00;8.73;;;3.85;;
64099;SDS011;50385;61.766;38.054;2022-08-19T06:19:28;12.13;;;3.60;;
64099;SDS011;50385;61.766;38.054;2022-08-19T06:21:57;8.40;;;3.53;;
64099;SDS011;50385;61.766;38.054;2022-08-19T06:24:25;8.07;;;3.60;;
64099;SDS011;50385;61.766;38.054;2022-08-19T06:26:58;7.18;;;3.30;;
64099;SDS011;50385;61.766;38.054;2022-08-19T06:29:25;9.45;;;3.55;;
64099;SDS011;50385;61.766;38.054;2022-08-19T06:31:55;6.63;;;3.42;;
64099;SDS011;50385;61.766;38.054;2022-08-19T06:34:23;12.98;;;3.70;;
64099;SDS011;50385;61.766;38.054;2022-08-19T06:36:51;9.18;;;4.03;;
64099;SDS011;50385;61.766;38.054;2022-08-19T06:39:21;9.38;;;3.70;;
64099;SDS011;50385;61.766;38.054;2022-08-19T06:41:51;7.53;;;3.53;;
64099;SDS011;50385;61.766;38.054;2022-08-19T06:44:20;6.70;;;3.63;;
64099;SDS011;50385;61.766;38.054;2022-08-19T06:46:48;6.78;;;3.30;;
64099;SDS011;50385;61.766;38.054;2022-08-19T06:49:16;9.73;;;3.63;;
64099;SDS011;50385;61.766;38.054;2022-08-19T06:51:45;5.28;;;3.50;;
64099;SDS011;50385;61.766;38.054;2022-08-19T06:54:16;4.50;;;3.17;;
64099;SDS011;50385;61.766;38.054;2022-08-19T06:56:44;13.30;;;3.95;;
64099;SDS011;50385;61.766;38.054;2022-08-19T06:59:16;15.18;;;3.53;;
64099;SDS011;50385;61.766;38.054;2022-08-19T07:01:52;11.95;;;3.70;;
64099;SDS011;50385;61.766;38.054;2022-08-19T07:04:24;6.47;;;3.10;;
64099;SDS011;50385;61.766;38.054;2022-08-19T07:07:04;10.38;;;3.17;;
64099;SDS011;50385;61.766;38.054;2022-08-19T07:09:39;4.68;;;3.20;;
64099;SDS011;50385;61.766;38.054;2022-08-19T07:12:11;6.43;;;3.03;;
64099;SDS011;50385;61.766;38.054;2022-08-19T07:14:41;10.13;;;3.65;;
64099;SDS011;50385;61.766;38.054;2022-08-19T07:17:09;9.48;;;3.63;;
64099;SDS011;50385;61.766;38.054;2022-08-19T07:19:38;15.40;;;3.28;;
64099;SDS011;50385;61.766;38.054;2022-08-19T07:22:06;7.80;;;2.83;;
64099;SDS011;50385;61.766;38.054;2022-08-19T07:24:35;6.05;;;3.22;;
64099;SDS011;50385;61.766;38.054;2022-08-19T07:27:04;12.43;;;3.67;;
64099;SDS011;50385;61.766;38.054;2022-08-19T07:29:42;3.97;;;2.97;;
64099;SDS011;50385;61.766;38.054;2022-08-19T07:32:09;10.50;;;3.42;;
64099;SDS011;50385;61.766;38.054;2022-08-19T07:34:38;10.73;;;3.17;;
64099;SDS011;50385;61.766;38.054;2022-08-19T07:37:06;6.47;;;4.05;;
64099;SDS011;50385;61.766;38.054;2022-08-19T07:39:34;12.55;;;3.63;;
64099;SDS011;50385;61.766;38.054;2022-08-19T07:42:03;7.00;;;3.22;;
64099;SDS011;50385;61.766;38.054;2022-08-19T07:44:34;13.15;;;3.47;;
64099;SDS011;50385;61.766;38.054;2022-08-19T07:47:02;6.07;;;2.97;;
64099;SDS011;50385;61.766;38.054;2022-08-19T07:49:30;22.92;;;3.55;;
64099;SDS011;50385;61.766;38.054;2022-08-19T07:51:58;19.42;;;3.50;;
64099;SDS011;50385;61.766;38.054;2022-08-19T07:54:33;7.65;;;3.22;;
64099;SDS011;50385;61.766;38.054;2022-08-19T07:57:02;11.88;;;3.10;;
64099;SDS011;50385;61.766;38.054;2022-08-19T07:59:30;8.43;;;2.92;;
64099;SDS011;50385;61.766;38.054;2022-08-19T08:01:57;6.70;;;2.90;;
64099;SDS011;50385;61.766;38.054;2022-08-19T08:04:29;4.97;;;2.67;;
64099;SDS011;50385;61.766;38.054;2022-08-19T08:07:15;5.07;;;3.00;;
64099;SDS011;50385;61.766;38.054;2022-08-19T08:10:03;15.35;;;3.38;;
64099;SDS011;50385;61.766;38.054;2022-08-19T08:12:35;6.47;;;3.10;;
64099;SDS011;50385;61.766;38.054;2022-08-19T08:15:09;3.42;;;2.53;;
64099;SDS011;50385;61.766;38.054;2022-08-19T08:17:38;4.40;;;2.63;;
64099;SDS011;50385;61.766;38.054;2022-08-19T08:20:06;5.20;;;2.83;;
64099;SDS011;50385;61.766;38.054;2022-08-19T08:22:46;13.85;;;2.95;;
64099;SDS011;50385;61.766;38.054;2022-08-19T08:25:32;8.02;;;3.00;;
64099;SDS011;50385;61.766;38.054;2022-08-19T08:28:03;7.65;;;2.85;;
64099;SDS011;50385;61.766;38.054;2022-08-19T08:30:35;16.77;;;2.85;;
64099;SDS011;50385;61.766;38.054;2022-08-19T08:33:09;12.10;;;2.80;;
64099;SDS011;50385;61.766;38.054;2022-08-19T08:35:41;7.63;;;3.22;;
64099;SDS011;50385;61.766;38.054;2022-08-19T08:38:08;6.35;;;4.05;;
64099;SDS011;50385;61.766;38.054;2022-08-19T08:40:53;8.38;;;4.85;;
64099;SDS011;50385;61.766;38.054;2022-08-19T08:43:34;12.68;;;6.85;;
64099;SDS011;50385;61.766;38.054;2022-08-19T08:46:04;25.98;;;7.57;;
64099;SDS011;50385;61.766;38.054;2022-08-19T08:48:40;21.77;;;7.82;;
64099;SDS011;50385;61.766;38.054;2022-08-19T08:51:24;11.65;;;7.45;;
64099;SDS011;50385;61.766;38.054;2022-08-19T08:53:54;19.60;;;7.95;;
64099;SDS011;50385;61.766;38.054;2022-08-19T08:56:22;12.88;;;8.23;;
64099;SDS011;50385;61.766;38.054;2022-08-19T09:01:33;24.43;;;9.47;;
64099;SDS011;50385;61.766;38.054;2022-08-19T09:04:05;13.73;;;8.70;;
64099;SDS011;50385;61.766;38.054;2022-08-19T09:06:51;13.57;;;8.15;;
64099;SDS011;50385;61.766;38.054;2022-08-19T09:09:26;20.40;;;8.75;;
64099;SDS011;50385;61.766;38.054;2022-08-19T09:14:48;19.77;;;8.18;;
64099;SDS011;50385;61.766;38.054;2022-08-19T09:17:28;15.07;;;8.55;;
64099;SDS011;50385;61.766;38.054;2022-08-19T09:20:05;12.20;;;7.78;;
64099;SDS011;50385;61.766;38.054;2022-08-19T09:22:36;16.20;;;7.15;;
64099;SDS011;50385;61.766;38.054;2022-08-19T09:25:04;12.05;;;6.85;;
64099;SDS011;50385;61.766;38.054;2022-08-19T09:27:33;9.70;;;6.68;;
64099;SDS011;50385;61.766;38.054;2022-08-19T09:30:04;10.13;;;5.45;;
64099;SDS011;50385;61.766;38.054;2022-08-19T09:32:33;10.73;;;5.82;;
64099;SDS011;50385;61.766;38.054;2022-08-19T09:35:00;7.85;;;5.15;;
64099;SDS011;50385;61.766;38.054;2022-08-19T09:37:27;6.82;;;4.22;;
64099;SDS011;50385;61.766;38.054;2022-08-19T09:39:54;8.55;;;4.65;;
64099;SDS011;50385;61.766;38.054;2022-08-19T09:42:21;9.15;;;6.07;;
64099;SDS011;50385;61.766;38.054;2022-08-19T09:44:48;17.80;;;5.90;;
64099;SDS011;50385;61.766;38.054;2022-08-19T09:47:15;12.98;;;5.93;;
64099;SDS011;50385;61.766;38.054;2022-08-19T09:49:42;8.15;;;4.75;;
64099;SDS011;50385;61.766;38.054;2022-08-19T09:52:09;13.55;;;4.20;;
64099;SDS011;50385;61.766;38.054;2022-08-19T09:54:37;6.45;;;3.60;;
64099;SDS011;50385;61.766;38.054;2022-08-19T09:57:04;9.13;;;3.22;;
64099;SDS011;50385;61.766;38.054;2022-08-19T09:59:32;5.30;;;3.30;;
64099;SDS011;50385;61.766;38.054;2022-08-19T10:01:59;6.20;;;3.38;;
64099;SDS011;50385;61.766;38.054;2022-08-19T10:04:26;8.85;;;3.92;;
64099;SDS011;50385;61.766;38.054;2022-08-19T10:07:13;5.13;;;3.47;;
64099;SDS011;50385;61.766;38.054;2022-08-19T10:09:41;9.05;;;3.85;;
64099;SDS011;50385;61.766;38.054;2022-08-19T10:12:09;25.90;;;4.55;;
64099;SDS011;50385;61.766;38.054;2022-08-19T10:14:37;9.75;;;3.55;;
64099;SDS011;50385;61.766;38.054;2022-08-19T10:17:04;5.47;;;3.55;;
64099;SDS011;50385;61.766;38.054;2022-08-19T10:19:31;16.05;;;4.05;;
64099;SDS011;50385;61.766;38.054;2022-08-19T10:22:02;9.55;;;3.53;;
64099;SDS011;50385;61.766;38.054;2022-08-19T10:24:31;8.40;;;3.50;;
64099;SDS011;50385;61.766;38.054;2022-08-19T10:26:58;13.70;;;3.65;;
64099;SDS011;50385;61.766;38.054;2022-08-19T10:29:26;13.02;;;4.93;;
64099;SDS011;50385;61.766;38.054;2022-08-19T10:31:54;7.68;;;5.65;;
64099;SDS011;50385;61.766;38.054;2022-08-19T10:34:27;7.93;;;5.40;;
64099;SDS011;50385;61.766;38.054;2022-08-19T10:36:56;9.32;;;5.10;;
64099;SDS011;50385;61.766;38.054;2022-08-19T10:39:24;17.20;;;6.25;;
64099;SDS011;50385;61.766;38.054;2022-08-19T10:41:53;11.07;;;7.28;;
64099;SDS011;50385;61.766;38.054;2022-08-19T10:44:22;16.45;;;6.25;;
64099;SDS011;50385;61.766;38.054;2022-08-19T10:46:50;14.88;;;6.43;;
64099;SDS011;50385;61.766;38.054;2022-08-19T10:49:18;13.40;;;6.75;;
64099;SDS011;50385;61.766;38.054;2022-08-19T10:51:45;12.32;;;6.75;;
64099;SDS011;50385;61.766;38.054;2022-08-19T10:54:32;13.65;;;6.90;;
64099;SDS011;50385;61.766;38.054;2022-08-19T10:57:19;13.15;;;6.57;;
64099;SDS011;50385;61.766;38.054;2022-08-19T10:59:46;14.93;;;7.70;;
64099;SDS011;50385;61.766;38.054;2022-08-19T11:02:13;14.80;;;7.50;;
64099;SDS011;50385;61.766;38.054;2022-08-19T11:04:41;17.23;;;7.40;;
64099;SDS011;50385;61.766;38.054;2022-08-19T11:07:08;10.98;;;6.57;;
64099;SDS011;50385;61.766;38.054;2022-08-19T11:09:40;14.15;;;6.93;;
64099;SDS011;50385;61.766;38.054;2022-08-19T11:12:15;9.60;;;6.65;;
64099;SDS011;50385;61.766;38.054;2022-08-19T11:14:43;10.45;;;6.80;;
64099;SDS011;50385;61.766;38.054;2022-08-19T11:17:10;12.20;;;6.72;;
64099;SDS011;50385;61.766;38.054;2022-08-19T11:19:46;11.52;;;5.63;;
64099;SDS011;50385;61.766;38.054;2022-08-19T11:22:16;10.57;;;5.65;;
64099;SDS011;50385;61.766;38.054;2022-08-19T11:24:43;18.70;;;6.15;;
64099;SDS011;50385;61.766;38.054;2022-08-19T11:27:11;10.40;;;6.32;;
64099;SDS011;50385;61.766;38.054;2022-08-19T11:29:39;13.15;;;6.13;;
64099;SDS011;50385;61.766;38.054;2022-08-19T11:32:08;12.93;;;6.68;;
64099;SDS011;50385;61.766;38.054;2022-08-19T11:34:39;10.48;;;6.28;;
64099;SDS011;50385;61.766;38.054;2022-08-19T11:37:06;6.45;;;4.40;;
64099;SDS011;50385;61.766;38.054;2022-08-19T11:39:39;10.23;;;4.20;;
64099;SDS011;50385;61.766;38.054;2022-08-19T11:42:13;5.35;;;4.03;;
64099;SDS011;50385;61.766;38.054;2022-08-19T11:45:09;5.35;;;3.95;;
64099;SDS011;50385;61.766;38.054;2022-08-19T11:47:40;9.68;;;4.57;;
64099;SDS011;50385;61.766;38.054;2022-08-19T11:50:12;6.35;;;4.90;;
64099;SDS011;50385;61.766;38.054;2022-08-19T11:52:40;6.97;;;4.50;;
64099;SDS011;50385;61.766;38.054;2022-08-19T11:55:12;7.35;;;4.10;;
64099;SDS011;50385;61.766;38.054;2022-08-19T11:57:42;10.70;;;3.20;;
64099;SDS011;50385;61.766;38.054;2022-08-19T12:00:14;4.47;;;2.78;;
64099;SDS011;50385;61.766;38.054;2022-08-19T12:02:42;7.03;;;3.55;;
64099;SDS011;50385;61.766;38.054;2022-08-19T12:05:08;5.50;;;3.50;;
64099;SDS011;50385;61.766;38.054;2022-08-19T12:07:36;8.55;;;4.95;;
64099;SDS011;50385;61.766;38.054;2022-08-19T12:10:03;11.85;;;5.03;;
64099;SDS011;50385;61.766;38.054;2022-08-19T12:12:31;12.40;;;4.93;;
64099;SDS011;50385;61.766;38.054;2022-08-19T12:14:58;9.90;;;4.65;;
64099;SDS011;50385;61.766;38.054;2022-08-19T12:17:30;11.15;;;4.03;;
64099;SDS011;50385;61.766;38.054;2022-08-19T12:20:12;6.97;;;4.20;;
64099;SDS011;50385;61.766;38.054;2022-08-19T12:26:46;8.82;;;4.28;;
64099;SDS011;50385;61.766;38.054;2022-08-19T12:29:13;6.05;;;4.03;;
64099;SDS011;50385;61.766;38.054;2022-08-19T12:31:46;5.55;;;3.67;;
64099;SDS011;50385;61.766;38.054;2022-08-19T12:34:43;6.80;;;3.15;;
64099;SDS011;50385;61.766;38.054;2022-08-19T12:37:16;5.35;;;2.80;;
64099;SDS011;50385;61.766;38.054;2022-08-19T12:39:44;5.63;;;2.90;;
64099;SDS011;50385;61.766;38.054;2022-08-19T12:42:14;6.15;;;3.10;;
64099;SDS011;50385;61.766;38.054;2022-08-19T12:44:41;6.47;;;2.65;;
64099;SDS011;50385;61.766;38.054;2022-08-19T12:47:10;10.98;;;2.95;;
64099;SDS011;50385;61.766;38.054;2022-08-19T12:49:45;10.43;;;2.85;;
64099;SDS011;50385;61.766;38.054;2022-08-19T12:52:13;4.13;;;2.90;;
64099;SDS011;50385;61.766;38.054;2022-08-19T12:54:42;6.97;;;2.58;;
64099;SDS011;50385;61.766;38.054;2022-08-19T12:57:10;7.30;;;2.92;;
64099;SDS011;50385;61.766;38.054;2022-08-19T12:59:38;30.27;;;3.20;;
64099;SDS011;50385;61.766;38.054;2022-08-19T13:02:05;8.60;;;2.53;;
64099;SDS011;50385;61.766;38.054;2022-08-19T13:04:33;3.92;;;2.45;;
64099;SDS011;50385;61.766;38.054;2022-08-19T13:07:07;8.43;;;2.20;;
64099;SDS011;50385;61.766;38.054;2022-08-19T13:09:35;10.10;;;2.10;;
64099;SDS011;50385;61.766;38.054;2022-08-19T13:12:03;7.35;;;2.33;;
64099;SDS011;50385;61.766;38.054;2022-08-19T13:14:34;4.00;;;2.08;;
64099;SDS011;50385;61.766;38.054;2022-08-19T13:17:10;3.78;;;2.17;;
64099;SDS011;50385;61.766;38.054;2022-08-19T13:19:52;10.07;;;2.40;;
64099;SDS011;50385;61.766;38.054;2022-08-19T13:22:20;10.60;;;2.28;;
64099;SDS011;50385;61.766;38.054;2022-08-19T13:24:52;5.07;;;2.15;;
64099;SDS011;50385;61.766;38.054;2022-08-19T13:27:21;7.35;;;2.78;;
64099;SDS011;50385;61.766;38.054;2022-08-19T13:29:48;4.93;;;2.50;;
64099;SDS011;50385;61.766;38.054;2022-08-19T13:32:36;11.20;;;2.45;;
64099;SDS011;50385;61.766;38.054;2022-08-19T13:35:24;6.72;;;2.10;;
64099;SDS011;50385;61.766;38.054;2022-08-19T13:37:51;5.00;;;2.10;;
64099;SDS011;50385;61.766;38.054;2022-08-19T13:40:19;9.65;;;2.20;;
64099;SDS011;50385;61.766;38.054;2022-08-19T13:42:50;5.25;;;2.15;;
64099;SDS011;50385;61.766;38.054;2022-08-19T13:45:20;4.05;;;2.17;;
64099;SDS011;50385;61.766;38.054;2022-08-19T13:47:55;6.53;;;2.90;;
64099;SDS011;50385;61.766;38.054;2022-08-19T13:50:28;7.93;;;2.63;;
64099;SDS011;50385;61.766;38.054;2022-08-19T13:52:57;6.00;;;2.30;;
64099;SDS011;50385;61.766;38.054;2022-08-19T13:55:25;5.50;;;2.20;;
64099;SDS011;50385;61.766;38.054;2022-08-19T13:57:57;9.30;;;2.38;;
64099;SDS011;50385;61.766;38.054;2022-08-19T14:00:32;5.57;;;2.28;;
64099;SDS011;50385;61.766;38.054;2022-08-19T14:03:03;14.77;;;1.90;;
64099;SDS011;50385;61.766;38.054;2022-08-19T14:05:31;9.23;;;2.60;;
64099;SDS011;50385;61.766;38.054;2022-08-19T14:07:59;6.28;;;2.40;;
64099;SDS011;50385;61.766;38.054;2022-08-19T14:10:26;7.32;;;2.50;;
64099;SDS011;50385;61.766;38.054;2022-08-19T14:12:54;5.80;;;2.40;;
64099;SDS011;50385;61.766;38.054;2022-08-19T14:15:24;9.80;;;2.15;;
64099;SDS011;50385;61.766;38.054;2022-08-19T14:17:51;6.68;;;2.30;;
64099;SDS011;50385;61.766;38.054;2022-08-19T14:20:20;3.25;;;2.40;;
64099;SDS011;50385;61.766;38.054;2022-08-19T14:22:48;4.28;;;2.40;;
64099;SDS011;50385;61.766;38.054;2022-08-19T14:25:18;8.55;;;2.40;;
64099;SDS011;50385;61.766;38.054;2022-08-19T14:27:47;14.35;;;3.05;;
64099;SDS011;50385;61.766;38.054;2022-08-19T14:30:17;4.53;;;2.50;;
64099;SDS011;50385;61.766;38.054;2022-08-19T14:32:53;17.15;;;2.25;;
64099;SDS011;50385;61.766;38.054;2022-08-19T14:35:20;4.97;;;2.63;;
64099;SDS011;50385;61.766;38.054;2022-08-19T14:37:48;4.30;;;2.50;;
64099;SDS011;50385;61.766;38.054;2022-08-19T14:40:17;7.88;;;2.75;;
64099;SDS011;50385;61.766;38.054;2022-08-19T14:42:49;11.57;;;2.40;;
64099;SDS011;50385;61.766;38.054;2022-08-19T14:45:16;7.35;;;2.90;;
64099;SDS011;50385;61.766;38.054;2022-08-19T14:47:43;9.70;;;2.30;;
64099;SDS011;50385;61.766;38.054;2022-08-19T14:50:10;2.92;;;2.20;;
64099;SDS011;50385;61.766;38.054;2022-08-19T14:52:40;7.30;;;2.03;;
64099;SDS011;50385;61.766;38.054;2022-08-19T14:58:41;20.38;;;3.15;;
64099;SDS011;50385;61.766;38.054;2022-08-19T15:01:09;9.95;;;2.63;;
64099;SDS011;50385;61.766;38.054;2022-08-19T15:03:39;13.32;;;2.90;;
64099;SDS011;50385;61.766;38.054;2022-08-19T15:06:09;4.57;;;2.40;;
64099;SDS011;50385;61.766;38.054;2022-08-19T15:08:36;5.25;;;2.65;;
64099;SDS011;50385;61.766;38.054;2022-08-19T15:11:16;8.20;;;2.60;;